createdAt,value
2023-03-07T00:00:16.449Z,98604.00
2023-03-07T00:02:44.296Z,98604.13
2023-03-07T00:05:12.579Z,98601.56
2023-03-07T00:07:39.673Z,98606.84
2023-03-07T00:10:07.226Z,98602.59
2023-03-07T00:12:34.552Z,98605.25
2023-03-07T00:15:01.780Z,98594.97
2023-03-07T00:17:29.013Z,98596.91
2023-03-07T00:19:56.231Z,98591.81
2023-03-07T00:22:23.586Z,98587.38
2023-03-07T00:24:50.614Z,98578.75
2023-03-07T00:27:17.912Z,98579.81
2023-03-07T00:29:45.207Z,98581.44
2023-03-07T00:32:12.262Z,98585.03
2023-03-07T00:34:39.587Z,98576.47
2023-03-07T00:37:06.641Z,98581.59
2023-03-07T00:42:01.039Z,98581.69
2023-03-07T00:44:30.332Z,98572.19
2023-03-07T00:46:57.583Z,98571.34
2023-03-07T00:49:24.816Z,98579.19
2023-03-07T00:51:52.359Z,98565.34
2023-03-07T00:54:19.597Z,98571.44
2023-03-07T00:56:46.922Z,98564.56
2023-03-07T00:59:15.382Z,98555.84
2023-03-07T01:01:42.982Z,98561.09
2023-03-07T01:04:10.776Z,98555.88
2023-03-07T01:06:38.260Z,98554.84
2023-03-07T01:09:08.563Z,98547.94
2023-03-07T01:11:37.460Z,98539.31
2023-03-07T01:14:06.630Z,98536.72
2023-03-07T01:16:38.150Z,98540.16
2023-03-07T01:19:08.745Z,98532.19
2023-03-07T01:21:38.589Z,98528.59
2023-03-07T01:24:07.788Z,98527.66
2023-03-07T01:26:35.431Z,98525.72
2023-03-07T01:29:05.515Z,98527.31
2023-03-07T01:31:35.674Z,98522.13
2023-03-07T01:34:03.864Z,98518.50
2023-03-07T01:36:35.229Z,98511.50
2023-03-07T01:39:17.142Z,98513.94
2023-03-07T01:41:51.543Z,98519.03
2023-03-07T01:44:25.951Z,98512.03
2023-03-07T01:47:00.695Z,98507.78
2023-03-07T01:49:41.078Z,98510.41
2023-03-07T01:52:21.216Z,98506.97
2023-03-07T01:54:58.757Z,98504.41
2023-03-07T01:57:33.797Z,98501.00
2023-03-07T02:00:08.403Z,98495.81
2023-03-07T02:02:44.175Z,98487.06
2023-03-07T02:05:22.443Z,98483.53
2023-03-07T02:07:51.207Z,98483.47
2023-03-07T02:10:23.618Z,98484.31
2023-03-07T02:12:53.568Z,98472.94
2023-03-07T02:15:21.152Z,98474.66
2023-03-07T02:17:48.715Z,98470.22
2023-03-07T02:20:42.731Z,98476.13
2023-03-07T02:23:37.111Z,98466.53
2023-03-07T02:26:13.959Z,98469.16
2023-03-07T02:28:42.877Z,98471.00
2023-03-07T02:31:11.901Z,98463.84
2023-03-07T02:33:40.553Z,98459.44
2023-03-07T02:36:15.180Z,98450.00
2023-03-07T02:38:51.284Z,98454.38
2023-03-07T02:41:22.696Z,98449.88
2023-03-07T02:43:50.672Z,98456.91
2023-03-07T02:46:18.068Z,98453.69
2023-03-07T02:48:45.284Z,98446.78
2023-03-07T02:51:14.014Z,98463.13
2023-03-07T02:53:43.092Z,98461.47
2023-03-07T02:56:10.257Z,98462.44
2023-03-07T02:58:37.491Z,98454.59
2023-03-07T03:01:04.633Z,98435.59
2023-03-07T03:03:31.680Z,98435.66
2023-03-07T03:05:58.579Z,98441.69
2023-03-07T03:08:25.794Z,98448.69
2023-03-07T03:10:54.698Z,98449.41
2023-03-07T03:13:24.312Z,98439.00
2023-03-07T03:15:57.064Z,98442.50
2023-03-07T03:18:27.621Z,98437.22
2023-03-07T03:20:54.875Z,98438.09
2023-03-07T03:23:22.425Z,98431.06
2023-03-07T03:26:01.295Z,98431.00
2023-03-07T03:28:32.069Z,98424.00
2023-03-07T03:31:02.027Z,98429.94
2023-03-07T03:33:31.067Z,98421.97
2023-03-07T03:36:00.344Z,98419.44
2023-03-07T03:38:27.977Z,98422.81
2023-03-07T03:40:56.549Z,98425.28
2023-03-07T03:43:23.536Z,98425.97
2023-03-07T03:45:55.610Z,98427.50
2023-03-07T03:48:24.844Z,98422.16
2023-03-07T03:50:59.886Z,98419.41
2023-03-07T03:53:27.115Z,98409.81
2023-03-07T03:56:08.528Z,98414.75
2023-03-07T03:58:36.222Z,98413.72
2023-03-07T04:01:05.956Z,98411.84
2023-03-07T04:03:34.426Z,98409.25
2023-03-07T04:06:03.501Z,98410.00
2023-03-07T04:08:32.066Z,98407.31
2023-03-07T04:10:59.780Z,98409.84
2023-03-07T04:13:27.340Z,98412.38
2023-03-07T04:15:54.914Z,98413.00
2023-03-07T04:18:23.209Z,98414.72
2023-03-07T04:20:51.966Z,98415.56
2023-03-07T04:23:21.933Z,98404.25
2023-03-07T04:25:50.217Z,98394.53
2023-03-07T04:28:19.050Z,98385.66
2023-03-07T04:30:46.287Z,98382.78
2023-03-07T04:33:15.583Z,98387.31
2023-03-07T04:35:43.316Z,98384.38
2023-03-07T04:38:11.111Z,98388.06
2023-03-07T04:40:38.454Z,98407.47
2023-03-07T04:43:06.450Z,98407.63
2023-03-07T04:45:37.466Z,98405.97
2023-03-07T04:48:05.052Z,98411.31
2023-03-07T04:50:34.196Z,98406.78
2023-03-07T04:53:01.441Z,98398.06
2023-03-07T04:55:28.745Z,98405.22
2023-03-07T04:57:57.760Z,98403.06
2023-03-07T05:00:25.596Z,98400.53
2023-03-07T05:02:56.777Z,98397.00
2023-03-07T05:05:24.501Z,98400.25
2023-03-07T05:07:51.728Z,98403.78
2023-03-07T05:10:19.429Z,98401.09
2023-03-07T05:12:46.919Z,98404.78
2023-03-07T05:15:14.179Z,98406.66
2023-03-07T05:17:41.624Z,98412.00
2023-03-07T05:20:11.257Z,98397.25
2023-03-07T05:22:38.294Z,98404.53
2023-03-07T05:25:07.035Z,98400.19
2023-03-07T05:27:35.552Z,98411.59
2023-03-07T05:30:03.062Z,98409.22
2023-03-07T05:32:30.783Z,98407.47
2023-03-07T05:34:58.749Z,98403.16
2023-03-07T05:37:26.089Z,98413.63
2023-03-07T05:39:54.025Z,98402.47
2023-03-07T05:42:21.331Z,98409.16
2023-03-07T05:44:49.407Z,98403.88
2023-03-07T05:47:16.766Z,98408.31
2023-03-07T05:49:44.514Z,98402.28
2023-03-07T05:52:13.607Z,98408.34
2023-03-07T05:54:41.277Z,98408.97
2023-03-07T05:57:09.155Z,98407.94
2023-03-07T05:59:36.641Z,98404.63
2023-03-07T06:02:03.979Z,98413.50
2023-03-07T06:04:31.265Z,98403.91
2023-03-07T06:06:59.842Z,98414.22
2023-03-07T06:09:28.353Z,98412.44
2023-03-07T06:11:58.112Z,98415.06
2023-03-07T06:14:28.441Z,98408.88
2023-03-07T06:16:55.626Z,98401.09
2023-03-07T06:19:23.155Z,98411.34
2023-03-07T06:21:51.932Z,98414.75
2023-03-07T06:24:20.033Z,98406.16
2023-03-07T06:26:47.852Z,98415.59
2023-03-07T06:29:16.220Z,98408.53
2023-03-07T06:31:43.562Z,98413.50
2023-03-07T06:34:11.448Z,98409.97
2023-03-07T06:36:40.483Z,98408.00
2023-03-07T06:39:07.909Z,98408.03
2023-03-07T06:41:36.093Z,98405.47
2023-03-07T06:44:04.753Z,98402.78
2023-03-07T06:46:33.288Z,98402.72
2023-03-07T06:49:05.548Z,98404.97
2023-03-07T06:51:34.180Z,98400.59
2023-03-07T06:54:02.811Z,98411.56
2023-03-07T06:56:31.456Z,98405.34
2023-03-07T06:58:59.625Z,98404.34
2023-03-07T07:01:26.764Z,98397.88
2023-03-07T07:03:57.143Z,98406.41
2023-03-07T07:06:25.401Z,98404.75
2023-03-07T07:08:57.647Z,98408.16
2023-03-07T07:11:29.098Z,98408.22
2023-03-07T07:13:57.051Z,98412.59
2023-03-07T07:16:24.733Z,98408.91
2023-03-07T07:18:52.714Z,98409.72
2023-03-07T07:21:20.529Z,98406.94
2023-03-07T07:23:48.312Z,98416.44
2023-03-07T07:26:15.754Z,98410.97
2023-03-07T07:28:46.038Z,98410.69
2023-03-07T07:31:13.855Z,98419.22
2023-03-07T07:33:41.174Z,98415.66
2023-03-07T07:36:09.772Z,98415.72
2023-03-07T07:38:37.523Z,98411.44
2023-03-07T07:41:05.217Z,98404.25
2023-03-07T07:43:33.496Z,98400.34
2023-03-07T07:46:10.760Z,98396.41
2023-03-07T07:48:38.766Z,98402.06
2023-03-07T07:51:06.724Z,98401.97
2023-03-07T07:53:36.912Z,98410.00
2023-03-07T07:56:04.848Z,98406.28
2023-03-07T07:58:32.272Z,98398.97
2023-03-07T08:01:01.453Z,98404.75
2023-03-07T08:03:29.113Z,98405.63
2023-03-07T08:05:56.642Z,98399.50
2023-03-07T08:08:24.058Z,98393.09
2023-03-07T08:10:51.142Z,98396.28
2023-03-07T08:13:18.683Z,98394.16
2023-03-07T08:15:46.019Z,98401.38
2023-03-07T08:18:16.184Z,98396.44
2023-03-07T08:20:43.577Z,98390.38
2023-03-07T08:23:10.837Z,98391.47
2023-03-07T08:25:38.771Z,98392.66
2023-03-07T08:28:05.955Z,98384.97
2023-03-07T08:30:36.334Z,98387.53
2023-03-07T08:33:04.060Z,98387.81
2023-03-07T08:35:31.802Z,98397.06
2023-03-07T08:38:00.808Z,98390.56
2023-03-07T08:40:31.625Z,98384.25
2023-03-07T08:43:00.032Z,98389.19
2023-03-07T08:45:27.443Z,98382.34
2023-03-07T08:47:55.989Z,98400.56
2023-03-07T08:50:25.987Z,98397.78
2023-03-07T08:52:53.447Z,98404.34
2023-03-07T08:55:23.008Z,98418.09
2023-03-07T08:57:50.249Z,98414.09
2023-03-07T09:00:18.115Z,98417.72
2023-03-07T09:02:46.543Z,98411.63
2023-03-07T09:05:13.964Z,98406.53
2023-03-07T09:07:41.514Z,98417.06
2023-03-07T09:10:12.008Z,98404.75
2023-03-07T09:12:39.204Z,98412.22
2023-03-07T09:15:07.175Z,98418.56
2023-03-07T09:17:34.537Z,98405.94
2023-03-07T09:20:01.936Z,98407.41
2023-03-07T09:22:29.083Z,98408.84
2023-03-07T09:24:56.612Z,98407.16
2023-03-07T09:27:24.219Z,98409.44
2023-03-07T09:29:51.630Z,98407.09
2023-03-07T09:32:19.053Z,98399.00
2023-03-07T09:34:46.420Z,98408.25
2023-03-07T09:37:14.144Z,98410.47
2023-03-07T09:39:41.421Z,98412.81
2023-03-07T09:42:19.310Z,98409.06
2023-03-07T09:45:15.462Z,98406.69
2023-03-07T09:48:28.385Z,98410.00
2023-03-07T09:51:25.487Z,98409.13
2023-03-07T09:54:01.160Z,98414.88
2023-03-07T09:56:36.226Z,98408.28
2023-03-07T09:59:22.797Z,98402.78
2023-03-07T10:02:06.661Z,98404.47
2023-03-07T10:04:55.254Z,98397.94
2023-03-07T10:07:27.138Z,98381.84
2023-03-07T10:10:00.671Z,98389.06
2023-03-07T10:12:43.115Z,98390.75
2023-03-07T10:15:14.902Z,98395.72
2023-03-07T10:18:06.152Z,98385.44
2023-03-07T10:20:41.158Z,98376.84
2023-03-07T10:23:29.403Z,98385.19
2023-03-07T10:26:13.113Z,98380.06
2023-03-07T10:28:43.221Z,98384.75
2023-03-07T10:31:29.070Z,98377.91
2023-03-07T10:33:56.791Z,98379.28
2023-03-07T10:36:44.199Z,98380.06
2023-03-07T10:39:45.410Z,98375.25
2023-03-07T10:42:15.394Z,98368.66
2023-03-07T10:44:45.726Z,98369.09
2023-03-07T10:47:28.138Z,98373.53
2023-03-07T10:50:03.143Z,98372.06
2023-03-07T10:52:42.053Z,98373.63
2023-03-07T10:55:32.960Z,98363.91
2023-03-07T10:58:24.789Z,98363.00
2023-03-07T11:01:02.591Z,98348.78
2023-03-07T11:03:51.493Z,98355.41
2023-03-07T11:06:51.282Z,98343.69
2023-03-07T11:09:24.671Z,98345.50
2023-03-07T11:12:00.827Z,98338.47
2023-03-07T11:14:29.400Z,98332.84
2023-03-07T11:17:02.614Z,98332.09
2023-03-07T11:19:45.092Z,98336.69
2023-03-07T11:22:27.252Z,98332.34
2023-03-07T11:24:57.445Z,98337.59
2023-03-07T11:27:38.028Z,98345.59
2023-03-07T11:30:28.414Z,98347.34
2023-03-07T11:33:25.420Z,98351.31
2023-03-07T11:36:15.828Z,98345.09
2023-03-07T11:39:15.389Z,98354.75
2023-03-07T11:41:48.092Z,98359.34
2023-03-07T11:44:33.620Z,98354.16
2023-03-07T11:47:06.073Z,98354.22
2023-03-07T11:49:36.006Z,98360.00
2023-03-07T11:52:38.953Z,98366.31
2023-03-07T11:55:36.139Z,98361.94
2023-03-07T11:58:12.319Z,98376.09
2023-03-07T12:01:04.517Z,98374.88
2023-03-07T12:03:46.905Z,98378.41
2023-03-07T12:06:29.366Z,98376.66
2023-03-07T12:09:18.682Z,98379.91
2023-03-07T12:12:17.557Z,98371.31
2023-03-07T12:15:00.383Z,98379.72
2023-03-07T12:17:54.258Z,98379.25
2023-03-07T12:20:31.338Z,98382.53
2023-03-07T12:23:08.513Z,98382.75
2023-03-07T12:25:39.344Z,98379.06
2023-03-07T12:28:17.118Z,98370.47
2023-03-07T12:31:15.484Z,98379.03
2023-03-07T12:34:04.666Z,98378.56
2023-03-07T12:36:34.760Z,98383.06
2023-03-07T12:39:12.854Z,98385.75
2023-03-07T12:41:43.048Z,98397.47
2023-03-07T12:44:36.583Z,98395.41
2023-03-07T12:47:30.958Z,98394.97
2023-03-07T12:50:29.187Z,98401.91
2023-03-07T12:53:05.110Z,98401.91
2023-03-07T12:55:54.895Z,98406.69
2023-03-07T12:58:42.729Z,98412.72
2023-03-07T13:01:35.305Z,98405.63
2023-03-07T13:04:23.371Z,98405.28
2023-03-07T13:06:52.233Z,98407.06
2023-03-07T13:09:25.598Z,98410.19
2023-03-07T13:12:20.322Z,98416.63
2023-03-07T13:15:19.776Z,98409.91
2023-03-07T13:17:47.016Z,98409.06
2023-03-07T13:20:20.631Z,98419.50
2023-03-07T13:22:48.336Z,98411.50
2023-03-07T13:25:37.236Z,98415.72
2023-03-07T13:28:26.902Z,98410.53
2023-03-07T13:31:15.407Z,98407.53
2023-03-07T13:33:43.265Z,98404.13
2023-03-07T13:36:39.100Z,98406.59
2023-03-07T13:39:57.487Z,98407.72
2023-03-07T13:42:47.613Z,98412.25
2023-03-07T13:45:37.762Z,98410.91
2023-03-07T13:48:11.757Z,98404.91
2023-03-07T13:50:50.993Z,98417.69
2023-03-07T13:53:30.434Z,98420.28
2023-03-07T13:56:02.990Z,98424.41
2023-03-07T13:59:03.446Z,98432.97
2023-03-07T14:01:40.860Z,98436.41
2023-03-07T14:04:40.721Z,98439.97
2023-03-07T14:07:25.378Z,98433.41
2023-03-07T14:09:56.560Z,98426.78
2023-03-07T14:12:58.370Z,98437.81
2023-03-07T14:15:43.923Z,98432.81
2023-03-07T14:18:26.405Z,98440.97
2023-03-07T14:21:18.865Z,98445.47
2023-03-07T14:24:28.046Z,98446.84
2023-03-07T14:27:03.177Z,98443.69
2023-03-07T14:29:31.311Z,98436.25
2023-03-07T14:32:01.168Z,98437.34
2023-03-07T14:34:36.374Z,98437.44
2023-03-07T14:37:12.487Z,98438.53
2023-03-07T14:40:17.168Z,98438.94
2023-03-07T14:43:22.479Z,98442.44
2023-03-07T14:46:05.826Z,98439.91
2023-03-07T14:48:54.824Z,98443.25
2023-03-07T14:51:26.345Z,98443.84
2023-03-07T14:53:55.727Z,98444.38
2023-03-07T14:56:24.438Z,98447.19
2023-03-07T14:58:54.674Z,98444.88
2023-03-07T15:01:22.677Z,98445.22
2023-03-07T15:03:52.383Z,98443.81
2023-03-07T15:06:25.427Z,98441.78
2023-03-07T15:08:56.511Z,98437.25
2023-03-07T15:11:33.808Z,98439.13
2023-03-07T15:14:11.805Z,98454.22
2023-03-07T15:16:50.759Z,98447.59
2023-03-07T15:19:30.514Z,98450.50
2023-03-07T15:22:04.540Z,98458.63
2023-03-07T15:24:36.341Z,98453.75
2023-03-07T15:27:06.262Z,98458.34
2023-03-07T15:29:34.500Z,98456.66
2023-03-07T15:32:07.512Z,98463.63
2023-03-07T15:34:36.342Z,98466.41
2023-03-07T15:37:22.732Z,98464.06
2023-03-07T15:40:01.685Z,98475.44
2023-03-07T15:42:30.642Z,98471.97
2023-03-07T15:45:00.293Z,98474.50
2023-03-07T15:47:30.550Z,98478.72
2023-03-07T15:50:01.775Z,98477.53
2023-03-07T15:52:33.292Z,98482.31
2023-03-07T15:55:06.220Z,98476.44
2023-03-07T15:57:51.005Z,98473.81
2023-03-07T16:00:26.351Z,98470.50
2023-03-07T16:02:54.211Z,98473.28
2023-03-07T16:05:25.166Z,98477.66
2023-03-07T16:07:55.958Z,98471.69
2023-03-07T16:10:28.170Z,98478.75
2023-03-07T16:12:56.242Z,98477.16
2023-03-07T16:15:24.894Z,98482.84
2023-03-07T16:17:56.451Z,98478.84
2023-03-07T16:20:29.097Z,98488.69
2023-03-07T16:22:57.092Z,98489.25
2023-03-07T16:25:27.964Z,98491.50
2023-03-07T16:27:57.410Z,98503.84
2023-03-07T16:30:30.392Z,98503.00
2023-03-07T16:32:57.479Z,98503.16
2023-03-07T16:35:27.849Z,98507.91
2023-03-07T16:37:55.836Z,98503.94
2023-03-07T16:40:26.244Z,98518.06
2023-03-07T16:42:53.644Z,98511.16
2023-03-07T16:45:32.035Z,98512.19
2023-03-07T16:48:02.576Z,98515.72
2023-03-07T16:50:33.645Z,98522.69
2023-03-07T16:53:01.035Z,98518.22
2023-03-07T16:55:28.735Z,98516.28
2023-03-07T16:58:00.945Z,98517.81
2023-03-07T17:00:28.930Z,98516.66
2023-03-07T17:03:02.281Z,98513.72
2023-03-07T17:05:30.666Z,98513.44
2023-03-07T17:07:59.450Z,98513.13
2023-03-07T17:10:27.130Z,98513.72
2023-03-07T17:12:59.467Z,98508.22
2023-03-07T17:15:31.057Z,98505.31
2023-03-07T17:17:59.654Z,98507.66
2023-03-07T17:20:28.024Z,98504.88
2023-03-07T17:22:55.559Z,98498.59
2023-03-07T17:25:23.875Z,98500.13
2023-03-07T17:28:15.907Z,98503.41
2023-03-07T17:30:45.880Z,98501.50
2023-03-07T17:33:15.112Z,98497.03
2023-03-07T17:35:42.714Z,98503.97
2023-03-07T17:38:10.242Z,98503.06
2023-03-07T17:40:38.801Z,98497.72
2023-03-07T17:43:08.390Z,98491.63
2023-03-07T17:45:36.053Z,98493.25
2023-03-07T17:48:03.588Z,98496.84
2023-03-07T17:50:30.837Z,98501.84
2023-03-07T17:52:58.718Z,98501.81
2023-03-07T17:55:26.300Z,98504.34
2023-03-07T17:57:53.942Z,98506.00
2023-03-07T18:00:22.061Z,98504.22
2023-03-07T18:02:49.832Z,98500.72
2023-03-07T18:05:19.562Z,98505.91
2023-03-07T18:07:47.521Z,98502.56
2023-03-07T18:10:14.646Z,98507.03
2023-03-07T18:12:42.726Z,98508.00
2023-03-07T18:15:14.815Z,98510.69
2023-03-07T18:17:48.355Z,98506.56
2023-03-07T18:20:19.532Z,98502.53
2023-03-07T18:22:46.981Z,98510.66
2023-03-07T18:25:16.216Z,98508.50
2023-03-07T18:27:43.996Z,98511.47
2023-03-07T18:30:12.653Z,98513.50
2023-03-07T18:32:39.917Z,98512.06
2023-03-07T18:35:08.049Z,98517.56
2023-03-07T18:37:36.864Z,98503.97
2023-03-07T18:40:06.572Z,98519.75
2023-03-07T18:42:39.512Z,98514.72
2023-03-07T18:45:07.962Z,98515.69
2023-03-07T18:47:35.172Z,98511.47
2023-03-07T18:50:02.474Z,98521.06
2023-03-07T18:52:30.311Z,98521.91
2023-03-07T18:54:57.711Z,98528.00
2023-03-07T18:57:25.122Z,98520.94
2023-03-07T18:59:52.668Z,98528.72
2023-03-07T19:02:20.119Z,98529.53
2023-03-07T19:04:47.492Z,98539.13
2023-03-07T19:07:15.163Z,98540.03
2023-03-07T19:09:48.429Z,98535.63
2023-03-07T19:12:15.768Z,98532.25
2023-03-07T19:14:43.057Z,98534.06
2023-03-07T19:17:10.846Z,98527.38
2023-03-07T19:19:38.248Z,98533.66
2023-03-07T19:22:06.049Z,98529.63
2023-03-07T19:24:33.494Z,98528.06
2023-03-07T19:27:01.188Z,98529.97
2023-03-07T19:29:28.702Z,98534.50
2023-03-07T19:31:56.972Z,98534.63
2023-03-07T19:34:24.035Z,98536.56
2023-03-07T19:36:52.138Z,98537.50
2023-03-07T19:39:20.725Z,98541.19
2023-03-07T19:41:48.425Z,98542.16
2023-03-07T19:44:16.847Z,98539.69
2023-03-07T19:46:46.783Z,98537.19
2023-03-07T19:49:16.109Z,98532.09
2023-03-07T19:51:46.008Z,98533.88
2023-03-07T19:54:14.602Z,98534.78
2023-03-07T19:56:44.679Z,98527.97
2023-03-07T19:59:12.908Z,98532.38
2023-03-07T20:01:40.829Z,98530.66
2023-03-07T20:04:10.650Z,98529.91
2023-03-07T20:06:39.550Z,98525.56
2023-03-07T20:09:07.201Z,98524.72
2023-03-07T20:11:39.747Z,98521.25
2023-03-07T20:14:07.626Z,98515.22
2023-03-07T20:16:35.057Z,98516.06
2023-03-07T20:19:05.541Z,98518.69
2023-03-07T20:21:33.843Z,98519.59
2023-03-07T20:24:01.840Z,98511.84
2023-03-07T20:26:35.164Z,98515.28
2023-03-07T20:29:04.318Z,98511.88
2023-03-07T20:31:32.818Z,98502.28
2023-03-07T20:34:01.839Z,98500.53
2023-03-07T20:36:33.053Z,98498.81
2023-03-07T20:39:02.441Z,98499.69
2023-03-07T20:41:32.414Z,98498.84
2023-03-07T20:44:02.683Z,98498.84
2023-03-07T20:46:31.372Z,98498.88
2023-03-07T20:49:00.955Z,98496.28
2023-03-07T20:51:31.414Z,98496.25
2023-03-07T20:54:00.325Z,98498.03
2023-03-07T20:56:29.788Z,98497.16
2023-03-07T20:58:58.038Z,98498.13
2023-03-07T21:01:30.700Z,98496.44
2023-03-07T21:04:15.410Z,98493.00
2023-03-07T21:06:44.440Z,98490.44
2023-03-07T21:09:15.632Z,98488.75
2023-03-07T21:11:45.496Z,98485.34
2023-03-07T21:14:17.528Z,98487.03
2023-03-07T21:16:48.445Z,98493.13
2023-03-07T21:19:16.265Z,98487.91
2023-03-07T21:21:43.873Z,98481.91
2023-03-07T21:24:12.948Z,98487.91
2023-03-07T21:26:40.580Z,98494.84
2023-03-07T21:29:09.822Z,98495.69
2023-03-07T21:31:37.616Z,98494.75
2023-03-07T21:34:08.193Z,98493.88
2023-03-07T21:36:35.688Z,98499.97
2023-03-07T21:39:08.269Z,98494.75
2023-03-07T21:41:36.779Z,98499.00
2023-03-07T21:44:03.928Z,98499.00
2023-03-07T21:46:31.496Z,98494.56
2023-03-07T21:48:59.959Z,98506.69
2023-03-07T21:51:27.460Z,98500.63
2023-03-07T21:53:54.754Z,98510.09
2023-03-07T21:56:24.053Z,98511.78
2023-03-07T21:58:52.167Z,98508.28
2023-03-07T22:01:26.327Z,98503.97
2023-03-07T22:03:55.929Z,98501.34
2023-03-07T22:06:23.787Z,98499.56
2023-03-07T22:08:50.938Z,98500.41
2023-03-07T22:11:17.966Z,98498.63
2023-03-07T22:13:45.790Z,98496.88
2023-03-07T22:16:18.245Z,98492.47
2023-03-07T22:18:45.729Z,98493.31
2023-03-07T22:21:15.261Z,98489.72
2023-03-07T22:23:43.092Z,98485.31
2023-03-07T22:26:12.472Z,98478.34
2023-03-07T22:28:43.365Z,98476.53
2023-03-07T22:31:12.888Z,98471.25
2023-03-07T22:33:41.692Z,98474.59
2023-03-07T22:36:13.002Z,98480.63
2023-03-07T22:38:41.938Z,98474.59
2023-03-07T22:41:15.710Z,98475.44
2023-03-07T22:43:43.455Z,98473.66
2023-03-07T22:46:11.433Z,98475.38
2023-03-07T22:48:39.388Z,98473.66
2023-03-07T22:51:17.859Z,98470.19
2023-03-07T22:53:45.684Z,98473.63
2023-03-07T22:56:16.570Z,98465.78
2023-03-07T22:58:44.083Z,98460.50
2023-03-07T23:01:14.795Z,98461.34
2023-03-07T23:03:42.640Z,98457.84
2023-03-07T23:06:10.173Z,98450.88
2023-03-07T23:08:37.345Z,98452.63
2023-03-07T23:11:09.238Z,98456.09
2023-03-07T23:13:37.025Z,98451.72
2023-03-07T23:16:10.270Z,98456.94
2023-03-07T23:18:38.357Z,98450.91
2023-03-07T23:21:07.410Z,98454.41
2023-03-07T23:23:35.010Z,98452.59
2023-03-07T23:26:02.592Z,98440.38
2023-03-07T23:28:30.148Z,98432.44
2023-03-07T23:30:57.640Z,98439.19
2023-03-07T23:33:25.244Z,98445.94
2023-03-07T23:35:52.747Z,98446.72
2023-03-07T23:38:20.977Z,98448.31
2023-03-07T23:40:48.401Z,98449.78
2023-03-07T23:43:15.679Z,98445.19
2023-03-07T23:45:42.924Z,98441.53
2023-03-07T23:48:13.765Z,98437.03
2023-03-07T23:50:41.212Z,98436.88
2023-03-07T23:53:08.550Z,98429.81
2023-03-07T23:55:36.116Z,98419.16
2023-03-07T23:58:05.429Z,98418.22
